createdAt,value
2023-02-25T00:01:39.774Z,97607.34
2023-02-25T00:04:07.520Z,97610.88
2023-02-25T00:06:36.791Z,97620.81
2023-02-25T00:09:06.465Z,97608.94
2023-02-25T00:11:34.234Z,97611.66
2023-02-25T00:14:02.741Z,97612.28
2023-02-25T00:16:32.530Z,97615.72
2023-02-25T00:19:00.416Z,97607.56
2023-02-25T00:21:29.407Z,97610.97
2023-02-25T00:24:14.029Z,97618.75
2023-02-25T00:26:43.331Z,97609.19
2023-02-25T00:29:11.083Z,97616.66
2023-02-25T00:31:40.147Z,97619.84
2023-02-25T00:34:07.933Z,97613.34
2023-02-25T00:36:35.587Z,97614.50
2023-02-25T00:39:04.713Z,97610.63
2023-02-25T00:41:32.724Z,97614.81
2023-02-25T00:44:02.201Z,97625.53
2023-02-25T00:46:31.600Z,97628.63
2023-02-25T00:49:00.026Z,97639.34
2023-02-25T00:51:30.499Z,97628.41
2023-02-25T00:53:58.922Z,97620.13
2023-02-25T00:56:28.518Z,97625.38
2023-02-25T00:58:56.201Z,97625.00
2023-02-25T01:01:26.179Z,97629.59
2023-02-25T01:03:56.469Z,97624.34
2023-02-25T01:06:25.671Z,97612.28
2023-02-25T01:08:53.730Z,97628.97
2023-02-25T01:11:29.110Z,97626.69
2023-02-25T01:14:00.063Z,97623.59
2023-02-25T01:16:30.140Z,97634.97
2023-02-25T01:19:00.749Z,97637.28
2023-02-25T01:21:30.118Z,97647.44
2023-02-25T01:24:00.214Z,97646.34
2023-02-25T01:26:29.855Z,97639.31
2023-02-25T01:28:58.884Z,97648.47
2023-02-25T01:31:29.510Z,97648.38
2023-02-25T01:33:58.848Z,97653.06
2023-02-25T01:36:27.074Z,97650.06
2023-02-25T01:38:55.986Z,97656.13
2023-02-25T01:41:25.016Z,97658.47
2023-02-25T01:44:10.499Z,97668.13
2023-02-25T01:46:39.400Z,97672.75
2023-02-25T01:49:12.370Z,97663.97
2023-02-25T01:51:41.050Z,97671.75
2023-02-25T01:54:10.652Z,97666.41
2023-02-25T01:56:41.254Z,97663.72
2023-02-25T01:59:10.903Z,97654.34
2023-02-25T02:01:40.487Z,97655.53
2023-02-25T02:04:11.906Z,97655.44
2023-02-25T02:06:41.482Z,97647.25
2023-02-25T02:09:13.279Z,97644.94
2023-02-25T02:11:42.269Z,97651.06
2023-02-25T02:14:15.535Z,97641.28
2023-02-25T02:17:00.524Z,97640.03
2023-02-25T02:19:44.490Z,97644.75
2023-02-25T02:22:22.768Z,97658.34
2023-02-25T02:25:24.172Z,97656.75
2023-02-25T02:28:17.623Z,97660.81
2023-02-25T02:31:06.179Z,97654.41
2023-02-25T02:33:44.178Z,97648.19
2023-02-25T02:36:20.608Z,97657.88
2023-02-25T02:38:54.340Z,97664.75
2023-02-25T02:41:31.022Z,97666.31
2023-02-25T02:44:06.763Z,97668.69
2023-02-25T02:46:39.653Z,97671.13
2023-02-25T02:49:12.653Z,97673.75
2023-02-25T02:51:47.369Z,97671.69
2023-02-25T02:54:17.302Z,97676.13
2023-02-25T02:56:48.794Z,97684.50
2023-02-25T02:59:24.769Z,97680.81
2023-02-25T03:02:03.766Z,97684.56
2023-02-25T03:04:36.030Z,97686.78
2023-02-25T03:07:06.698Z,97696.16
2023-02-25T03:09:39.084Z,97696.31
2023-02-25T03:12:08.737Z,97690.38
2023-02-25T03:14:38.037Z,97695.59
2023-02-25T03:17:10.880Z,97702.75
2023-02-25T03:19:41.258Z,97691.38
2023-02-25T03:22:12.133Z,97699.19
2023-02-25T03:24:48.699Z,97693.41
2023-02-25T03:27:29.400Z,97700.31
2023-02-25T03:30:09.722Z,97704.25
2023-02-25T03:32:41.890Z,97697.47
2023-02-25T03:35:12.439Z,97707.66
2023-02-25T03:37:45.079Z,97696.03
2023-02-25T03:40:15.687Z,97702.03
2023-02-25T03:42:45.929Z,97712.41
2023-02-25T03:45:16.515Z,97701.44
2023-02-25T03:47:45.758Z,97698.56
2023-02-25T03:50:19.371Z,97705.44
2023-02-25T03:52:49.419Z,97708.84
2023-02-25T03:55:46.631Z,97708.63
2023-02-25T03:58:14.504Z,97714.75
2023-02-25T04:00:46.700Z,97723.47
2023-02-25T04:03:16.121Z,97724.06
2023-02-25T04:05:44.059Z,97727.63
2023-02-25T04:08:16.313Z,97738.94
2023-02-25T04:10:46.647Z,97739.09
2023-02-25T04:13:17.337Z,97742.34
2023-02-25T04:15:45.878Z,97738.75
2023-02-25T04:18:14.252Z,97740.50
2023-02-25T04:20:43.894Z,97739.53
2023-02-25T04:23:14.594Z,97740.91
2023-02-25T04:25:43.352Z,97737.53
2023-02-25T04:28:11.197Z,97745.25
2023-02-25T04:30:39.090Z,97748.84
2023-02-25T04:33:06.925Z,97741.91
2023-02-25T04:35:34.774Z,97746.84
2023-02-25T04:38:03.815Z,97740.28
2023-02-25T04:40:31.507Z,97749.03
2023-02-25T04:42:59.326Z,97742.44
2023-02-25T04:45:27.351Z,97751.31
2023-02-25T04:47:57.761Z,97752.44
2023-02-25T04:50:26.986Z,97752.19
2023-02-25T04:52:54.674Z,97742.66
2023-02-25T04:55:23.745Z,97740.16
2023-02-25T04:57:51.492Z,97751.53
2023-02-25T05:00:24.115Z,97756.88
2023-02-25T05:02:52.066Z,97757.53
2023-02-25T05:05:20.315Z,97771.03
2023-02-25T05:07:48.065Z,97764.13
2023-02-25T05:10:16.280Z,97760.13
2023-02-25T05:12:45.394Z,97758.81
2023-02-25T05:15:13.526Z,97759.91
2023-02-25T05:17:41.291Z,97760.81
2023-02-25T05:20:13.003Z,97746.97
2023-02-25T05:22:41.491Z,97748.84
2023-02-25T05:25:11.091Z,97757.72
2023-02-25T05:27:38.898Z,97749.81
2023-02-25T05:30:09.999Z,97745.94
2023-02-25T05:32:38.710Z,97751.31
2023-02-25T05:35:08.793Z,97751.94
2023-02-25T05:37:36.861Z,97751.13
2023-02-25T05:40:05.003Z,97745.50
2023-02-25T05:42:32.822Z,97741.47
2023-02-25T05:45:00.596Z,97743.69
2023-02-25T05:47:30.102Z,97736.56
2023-02-25T05:49:57.834Z,97744.47
2023-02-25T05:52:25.704Z,97738.88
2023-02-25T05:54:53.544Z,97750.13
2023-02-25T05:57:23.912Z,97753.38
2023-02-25T05:59:51.956Z,97749.34
2023-02-25T06:02:19.672Z,97747.84
2023-02-25T06:04:49.096Z,97751.59
2023-02-25T06:07:16.950Z,97766.81
2023-02-25T06:09:45.663Z,97760.13
2023-02-25T06:12:14.010Z,97766.63
2023-02-25T06:14:41.810Z,97764.75
2023-02-25T06:17:09.607Z,97772.63
2023-02-25T06:19:37.383Z,97775.63
2023-02-25T06:22:06.436Z,97784.38
2023-02-25T06:24:34.219Z,97777.34
2023-02-25T06:27:01.965Z,97778.34
2023-02-25T06:29:29.747Z,97767.13
2023-02-25T06:31:57.527Z,97772.06
2023-02-25T06:34:25.336Z,97778.09
2023-02-25T06:36:53.190Z,97780.84
2023-02-25T06:39:22.327Z,97777.69
2023-02-25T06:41:50.389Z,97775.63
2023-02-25T06:44:18.140Z,97777.56
2023-02-25T06:46:45.952Z,97777.56
2023-02-25T06:49:13.686Z,97781.53
2023-02-25T06:51:41.512Z,97790.53
2023-02-25T06:54:09.254Z,97796.13
2023-02-25T06:56:38.454Z,97799.38
2023-02-25T06:59:06.336Z,97808.66
2023-02-25T07:01:34.402Z,97807.16
2023-02-25T07:04:02.992Z,97825.19
2023-02-25T07:06:30.689Z,97817.75
2023-02-25T07:08:58.396Z,97820.88
2023-02-25T07:11:33.652Z,97822.13
2023-02-25T07:14:03.376Z,97815.09
2023-02-25T07:16:31.307Z,97817.16
2023-02-25T07:19:02.316Z,97824.53
2023-02-25T07:21:30.938Z,97821.91
2023-02-25T07:23:59.307Z,97827.69
2023-02-25T07:26:28.295Z,97824.47
2023-02-25T07:28:57.081Z,97809.41
2023-02-25T07:31:27.721Z,97820.94
2023-02-25T07:33:56.130Z,97813.22
2023-02-25T07:36:25.915Z,97817.81
2023-02-25T07:38:54.231Z,97810.63
2023-02-25T07:41:23.279Z,97810.34
2023-02-25T07:43:51.224Z,97803.84
2023-02-25T07:46:19.106Z,97808.00
2023-02-25T07:48:48.329Z,97812.03
2023-02-25T07:51:18.687Z,97808.03
2023-02-25T07:53:47.275Z,97812.81
2023-02-25T07:56:16.683Z,97811.03
2023-02-25T07:58:44.813Z,97811.94
2023-02-25T08:01:17.413Z,97820.19
2023-02-25T08:03:45.471Z,97812.66
2023-02-25T08:06:14.610Z,97817.13
2023-02-25T08:08:42.503Z,97814.84
2023-02-25T08:11:12.839Z,97810.94
2023-02-25T08:13:41.305Z,97803.94
2023-02-25T08:16:11.692Z,97801.03
2023-02-25T08:18:42.679Z,97801.72
2023-02-25T08:21:11.297Z,97811.88
2023-02-25T08:23:40.631Z,97823.53
2023-02-25T08:26:09.766Z,97825.72
2023-02-25T08:28:38.103Z,97821.88
2023-02-25T08:31:08.345Z,97817.78
2023-02-25T08:33:36.302Z,97806.50
2023-02-25T08:36:09.557Z,97810.47
2023-02-25T08:38:38.285Z,97809.63
2023-02-25T08:41:08.231Z,97810.44
2023-02-25T08:43:36.931Z,97817.78
2023-02-25T08:46:06.383Z,97813.50
2023-02-25T08:48:34.308Z,97819.38
2023-02-25T08:51:04.391Z,97818.91
2023-02-25T08:53:32.915Z,97827.00
2023-02-25T08:56:03.421Z,97827.25
2023-02-25T08:58:33.149Z,97822.75
2023-02-25T09:01:01.349Z,97823.13
2023-02-25T09:03:29.278Z,97828.19
2023-02-25T09:05:57.589Z,97814.53
2023-02-25T09:08:25.340Z,97822.53
2023-02-25T09:10:53.188Z,97823.72
2023-02-25T09:13:20.998Z,97825.66
2023-02-25T09:15:58.459Z,97819.53
2023-02-25T09:18:26.990Z,97817.81
2023-02-25T09:20:54.742Z,97815.53
2023-02-25T09:23:22.531Z,97820.09
2023-02-25T09:25:50.178Z,97821.00
2023-02-25T09:28:18.181Z,97815.09
2023-02-25T09:30:46.311Z,97822.16
2023-02-25T09:33:18.196Z,97812.03
2023-02-25T09:35:46.031Z,97808.22
2023-02-25T09:38:14.011Z,97820.66
2023-02-25T09:40:42.516Z,97813.06
2023-02-25T09:43:21.782Z,97809.75
2023-02-25T09:45:54.169Z,97813.97
2023-02-25T09:48:28.612Z,97813.59
2023-02-25T09:51:00.401Z,97805.81
2023-02-25T09:53:33.293Z,97804.41
2023-02-25T09:56:02.416Z,97811.63
2023-02-25T09:58:35.044Z,97810.94
2023-02-25T10:01:08.377Z,97819.72
2023-02-25T10:03:56.766Z,97812.69
2023-02-25T10:06:32.054Z,97817.06
2023-02-25T10:09:10.596Z,97809.72
2023-02-25T10:11:47.047Z,97811.69
2023-02-25T10:14:29.764Z,97818.88
2023-02-25T10:17:06.741Z,97819.31
2023-02-25T10:19:55.281Z,97815.13
2023-02-25T10:22:36.604Z,97814.84
2023-02-25T10:25:12.735Z,97815.88
2023-02-25T10:27:45.074Z,97812.78
2023-02-25T10:30:17.221Z,97804.16
2023-02-25T10:32:47.122Z,97798.94
2023-02-25T10:35:23.002Z,97803.81
2023-02-25T10:37:51.187Z,97792.47
2023-02-25T10:40:20.581Z,97783.63
2023-02-25T10:42:50.054Z,97785.38
2023-02-25T10:45:22.333Z,97785.56
2023-02-25T10:47:56.919Z,97787.59
2023-02-25T10:50:42.988Z,97780.13
2023-02-25T10:53:16.650Z,97780.38
2023-02-25T10:55:52.388Z,97789.19
2023-02-25T10:58:28.038Z,97786.97
2023-02-25T11:00:59.675Z,97786.91
2023-02-25T11:03:32.388Z,97787.81
2023-02-25T11:06:23.481Z,97786.28
2023-02-25T11:08:52.217Z,97787.50
2023-02-25T11:11:23.539Z,97802.78
2023-02-25T11:14:00.065Z,97794.56
2023-02-25T11:16:29.550Z,97785.56
2023-02-25T11:19:01.218Z,97779.16
2023-02-25T11:21:34.678Z,97769.13
2023-02-25T11:24:06.284Z,97771.91
2023-02-25T11:26:37.085Z,97774.19
2023-02-25T11:29:11.037Z,97769.00
2023-02-25T11:31:41.616Z,97775.91
2023-02-25T11:34:16.874Z,97777.84
2023-02-25T11:36:50.765Z,97771.13
2023-02-25T11:39:20.366Z,97777.03
2023-02-25T11:41:50.597Z,97776.44
2023-02-25T11:44:23.577Z,97780.47
2023-02-25T11:47:08.383Z,97785.03
2023-02-25T11:49:59.282Z,97783.78
2023-02-25T11:52:35.948Z,97781.28
2023-02-25T11:55:18.676Z,97780.63
2023-02-25T11:57:55.808Z,97782.06
2023-02-25T12:00:28.368Z,97785.72
2023-02-25T12:03:16.843Z,97812.19
2023-02-25T12:05:54.318Z,97801.91
2023-02-25T12:08:43.731Z,97801.84
2023-02-25T12:12:07.624Z,97804.47
2023-02-25T12:15:10.323Z,97803.19
2023-02-25T12:18:06.652Z,97792.81
2023-02-25T12:21:17.767Z,97806.41
2023-02-25T12:24:21.165Z,97815.13
2023-02-25T12:27:10.602Z,97813.78
2023-02-25T12:29:56.800Z,97805.50
2023-02-25T12:32:54.551Z,97806.97
2023-02-25T12:35:46.898Z,97806.28
2023-02-25T12:38:59.459Z,97793.66
2023-02-25T12:41:40.310Z,97793.97
2023-02-25T12:44:31.683Z,97787.16
2023-02-25T12:47:13.158Z,97777.22
2023-02-25T12:50:09.104Z,97779.84
2023-02-25T12:52:55.515Z,97774.38
2023-02-25T12:55:48.540Z,97781.81
2023-02-25T12:58:33.754Z,97770.72
2023-02-25T13:01:14.381Z,97760.72
2023-02-25T13:04:08.356Z,97751.97
2023-02-25T13:06:58.045Z,97743.84
2023-02-25T13:09:50.677Z,97742.13
2023-02-25T13:12:47.016Z,97736.91
2023-02-25T13:15:21.719Z,97747.94
2023-02-25T13:18:05.798Z,97748.34
2023-02-25T13:21:14.498Z,97746.59
2023-02-25T13:24:01.125Z,97744.94
2023-02-25T13:26:49.917Z,97752.91
2023-02-25T13:29:28.505Z,97747.47
2023-02-25T13:32:17.940Z,97745.16
2023-02-25T13:34:50.964Z,97738.91
2023-02-25T13:37:37.773Z,97740.91
2023-02-25T13:40:27.106Z,97740.63
2023-02-25T13:43:19.660Z,97734.06
2023-02-25T13:46:07.099Z,97742.94
2023-02-25T13:49:04.658Z,97736.84
2023-02-25T13:52:07.180Z,97724.84
2023-02-25T13:55:07.774Z,97729.88
2023-02-25T13:57:51.552Z,97732.16
2023-02-25T14:00:46.041Z,97727.38
2023-02-25T14:03:40.475Z,97721.16
2023-02-25T14:06:21.996Z,97719.22
2023-02-25T14:09:11.303Z,97723.41
2023-02-25T14:12:06.419Z,97730.00
2023-02-25T14:15:07.060Z,97733.09
2023-02-25T14:18:08.594Z,97746.56
2023-02-25T14:20:44.142Z,97730.81
2023-02-25T14:23:23.867Z,97729.06
2023-02-25T14:26:08.698Z,97736.06
2023-02-25T14:28:40.770Z,97729.78
2023-02-25T14:31:17.477Z,97716.59
2023-02-25T14:34:04.929Z,97716.81
2023-02-25T14:36:50.125Z,97722.88
2023-02-25T14:39:33.095Z,97727.41
2023-02-25T14:42:14.226Z,97727.41
2023-02-25T14:44:49.733Z,97733.75
2023-02-25T14:47:23.629Z,97733.50
2023-02-25T14:49:59.145Z,97738.47
2023-02-25T14:52:55.384Z,97738.06
2023-02-25T14:55:41.873Z,97737.56
2023-02-25T14:58:38.629Z,97739.94
2023-02-25T15:01:34.870Z,97741.16
2023-02-25T15:04:26.965Z,97744.19
2023-02-25T15:07:09.446Z,97748.53
2023-02-25T15:10:02.466Z,97748.75
2023-02-25T15:12:49.078Z,97757.53
2023-02-25T15:15:41.929Z,97763.47
2023-02-25T15:18:32.632Z,97763.78
2023-02-25T15:21:20.883Z,97769.59
2023-02-25T15:23:51.964Z,97782.66
2023-02-25T15:26:22.745Z,97795.03
2023-02-25T15:28:52.699Z,97792.28
2023-02-25T15:31:30.242Z,97811.31
2023-02-25T15:34:43.956Z,97814.94
2023-02-25T15:37:31.792Z,97827.63
2023-02-25T15:40:01.564Z,97827.22
2023-02-25T15:42:57.702Z,97831.31
2023-02-25T15:45:41.889Z,97829.16
2023-02-25T15:48:32.967Z,97828.59
2023-02-25T15:51:02.714Z,97816.91
2023-02-25T15:53:55.192Z,97803.41
2023-02-25T15:56:31.921Z,97800.47
2023-02-25T15:59:01.046Z,97805.56
2023-02-25T16:01:42.494Z,97806.63
2023-02-25T16:04:44.852Z,97805.59
2023-02-25T16:07:15.987Z,97814.44
2023-02-25T16:09:50.275Z,97813.56
2023-02-25T16:12:19.267Z,97815.28
2023-02-25T16:14:48.104Z,97813.47
2023-02-25T16:17:21.110Z,97825.72
2023-02-25T16:19:55.338Z,97834.78
2023-02-25T16:22:25.815Z,97827.75
2023-02-25T16:24:55.356Z,97832.03
2023-02-25T16:27:37.400Z,97842.38
2023-02-25T16:30:13.966Z,97846.00
2023-02-25T16:32:52.706Z,97851.03
2023-02-25T16:35:28.257Z,97855.72
2023-02-25T16:38:03.729Z,97856.13
2023-02-25T16:40:35.911Z,97863.06
2023-02-25T16:43:03.821Z,97862.38
2023-02-25T16:45:36.327Z,97871.41
2023-02-25T16:48:09.333Z,97862.47
2023-02-25T16:50:37.480Z,97857.91
2023-02-25T16:53:05.539Z,97856.81
2023-02-25T16:55:40.060Z,97868.41
2023-02-25T16:58:22.197Z,97867.38
2023-02-25T17:00:52.367Z,97868.94
2023-02-25T17:03:23.351Z,97882.03
2023-02-25T17:06:03.163Z,97880.25
2023-02-25T17:08:30.862Z,97906.78
2023-02-25T17:11:00.760Z,97926.97
2023-02-25T17:13:32.328Z,97953.81
2023-02-25T17:16:04.002Z,97965.84
2023-02-25T17:18:35.696Z,97963.19
2023-02-25T17:21:06.782Z,97971.56
2023-02-25T17:23:39.836Z,97981.22
2023-02-25T17:26:13.503Z,97990.78
2023-02-25T17:28:46.971Z,97993.38
2023-02-25T17:31:16.723Z,98007.13
2023-02-25T17:33:50.533Z,98012.38
2023-02-25T17:36:23.710Z,98000.91
2023-02-25T17:38:56.272Z,98005.66
2023-02-25T17:41:25.429Z,98005.94
2023-02-25T17:43:53.963Z,97996.94
2023-02-25T17:46:30.174Z,97999.81
2023-02-25T17:49:02.524Z,97997.53
2023-02-25T17:51:33.701Z,97996.56
2023-02-25T17:54:06.529Z,97996.03
2023-02-25T17:56:36.460Z,98011.03
2023-02-25T17:59:07.676Z,98003.66
2023-02-25T18:01:53.907Z,98014.69
2023-02-25T18:04:25.769Z,98012.00
2023-02-25T18:06:55.519Z,98019.97
2023-02-25T18:09:32.700Z,98018.00
2023-02-25T18:12:03.093Z,98023.91
2023-02-25T18:14:35.688Z,98023.53
2023-02-25T18:17:14.467Z,98031.38
2023-02-25T18:19:46.203Z,98030.97
2023-02-25T18:22:31.962Z,98031.50
2023-02-25T18:25:03.010Z,98030.69
2023-02-25T18:27:32.824Z,98034.63
2023-02-25T18:30:18.084Z,98027.53
2023-02-25T18:32:46.720Z,98030.03
2023-02-25T18:35:16.232Z,98031.44
2023-02-25T18:37:45.627Z,98037.63
2023-02-25T18:40:19.675Z,98036.22
2023-02-25T18:42:47.509Z,98042.25
2023-02-25T18:45:16.794Z,98044.88
2023-02-25T18:47:44.817Z,98042.03
2023-02-25T18:50:13.016Z,98042.53
2023-02-25T18:52:42.724Z,98051.47
2023-02-25T18:55:16.939Z,98046.50
2023-02-25T18:57:44.952Z,98048.38
2023-02-25T19:00:13.687Z,98045.72
2023-02-25T19:02:48.188Z,98040.78
2023-02-25T19:05:17.051Z,98039.34
2023-02-25T19:07:46.220Z,98044.47
2023-02-25T19:10:17.295Z,98052.47
2023-02-25T19:12:48.451Z,98046.69
2023-02-25T19:15:19.493Z,98046.53
2023-02-25T19:17:47.767Z,98053.41
2023-02-25T19:20:16.974Z,98062.34
2023-02-25T19:22:47.906Z,98065.06
2023-02-25T19:25:19.747Z,98070.78
2023-02-25T19:27:50.114Z,98065.72
2023-02-25T19:30:21.714Z,98075.94
2023-02-25T19:32:49.600Z,98070.50
2023-02-25T19:35:17.874Z,98074.31
2023-02-25T19:37:47.075Z,98083.44
2023-02-25T19:40:17.163Z,98089.06
2023-02-25T19:42:45.638Z,98089.06
2023-02-25T19:45:16.737Z,98088.88
2023-02-25T19:47:44.761Z,98094.47
2023-02-25T19:50:13.681Z,98101.50
2023-02-25T19:52:41.415Z,98106.13
2023-02-25T19:55:13.009Z,98113.97
2023-02-25T19:57:42.119Z,98119.22
2023-02-25T20:00:13.608Z,98128.19
2023-02-25T20:02:41.796Z,98128.16
2023-02-25T20:05:10.501Z,98127.22
2023-02-25T20:07:38.569Z,98140.16
2023-02-25T20:10:12.868Z,98138.88
2023-02-25T20:12:41.430Z,98143.66
2023-02-25T20:15:11.085Z,98146.56
2023-02-25T20:17:40.343Z,98155.03
2023-02-25T20:20:09.878Z,98152.63
2023-02-25T20:22:38.971Z,98166.16
2023-02-25T20:25:08.135Z,98155.81
2023-02-25T20:27:39.858Z,98158.38
2023-02-25T20:30:09.629Z,98158.03
2023-02-25T20:32:37.394Z,98157.88
2023-02-25T20:35:05.834Z,98166.06
2023-02-25T20:37:37.665Z,98174.34
2023-02-25T20:40:09.083Z,98172.75
2023-02-25T20:42:38.859Z,98175.47
2023-02-25T20:45:07.866Z,98184.06
2023-02-25T20:47:37.190Z,98185.75
2023-02-25T20:50:07.131Z,98186.50
2023-02-25T20:52:35.169Z,98182.19
2023-02-25T20:55:03.259Z,98186.00
2023-02-25T20:57:31.793Z,98194.31
2023-02-25T21:00:00.935Z,98198.50
2023-02-25T21:02:28.734Z,98193.88
2023-02-25T21:04:56.414Z,98198.00
2023-02-25T21:07:26.284Z,98196.75
2023-02-25T21:09:54.125Z,98189.66
2023-02-25T21:12:21.885Z,98199.03
2023-02-25T21:14:49.752Z,98191.59
2023-02-25T21:17:18.950Z,98195.78
2023-02-25T21:19:46.719Z,98202.16
2023-02-25T21:22:14.482Z,98199.41
2023-02-25T21:24:42.324Z,98199.78
2023-02-25T21:27:10.254Z,98197.72
2023-02-25T21:29:38.495Z,98212.03
2023-02-25T21:32:06.476Z,98212.06
2023-02-25T21:34:37.151Z,98223.50
2023-02-25T21:37:04.921Z,98214.22
2023-02-25T21:39:32.794Z,98214.59
2023-02-25T21:42:00.560Z,98226.19
2023-02-25T21:44:28.558Z,98226.63
2023-02-25T21:46:58.087Z,98233.66
2023-02-25T21:49:27.701Z,98233.06
2023-02-25T21:51:56.877Z,98237.22
2023-02-25T21:54:24.681Z,98233.09
2023-02-25T21:56:52.716Z,98233.00
2023-02-25T21:59:20.434Z,98232.44
2023-02-25T22:01:48.542Z,98233.13
2023-02-25T22:04:16.356Z,98237.44
2023-02-25T22:06:45.180Z,98236.47
2023-02-25T22:09:14.384Z,98235.56
2023-02-25T22:11:42.313Z,98231.56
2023-02-25T22:14:10.858Z,98235.38
2023-02-25T22:16:42.130Z,98235.13
2023-02-25T22:19:12.752Z,98230.72
2023-02-25T22:21:40.546Z,98237.28
2023-02-25T22:24:10.403Z,98229.84
2023-02-25T22:26:42.298Z,98228.63
2023-02-25T22:29:10.706Z,98245.25
2023-02-25T22:31:38.880Z,98241.03
2023-02-25T22:34:11.200Z,98243.88
2023-02-25T22:36:42.838Z,98247.25
2023-02-25T22:39:12.411Z,98252.09
2023-02-25T22:41:41.447Z,98257.72
2023-02-25T22:44:09.786Z,98260.94
2023-02-25T22:46:39.267Z,98261.94
2023-02-25T22:49:12.101Z,98255.81
2023-02-25T22:51:45.242Z,98260.81
2023-02-25T22:54:17.718Z,98261.75
2023-02-25T22:56:49.780Z,98252.50
2023-02-25T22:59:17.738Z,98256.41
2023-02-25T23:01:45.529Z,98255.03
2023-02-25T23:04:13.324Z,98263.34
2023-02-25T23:06:44.427Z,98249.31
2023-02-25T23:09:13.157Z,98259.72
2023-02-25T23:11:44.846Z,98252.81
2023-02-25T23:14:14.631Z,98254.03
2023-02-25T23:16:44.700Z,98256.22
2023-02-25T23:19:15.055Z,98260.53
2023-02-25T23:21:43.090Z,98269.44
2023-02-25T23:24:13.908Z,98269.34
2023-02-25T23:26:43.738Z,98269.22
2023-02-25T23:29:13.030Z,98273.00
2023-02-25T23:31:45.812Z,98273.28
2023-02-25T23:34:15.557Z,98278.84
2023-02-25T23:36:45.178Z,98280.13
2023-02-25T23:39:14.986Z,98272.22
2023-02-25T23:41:43.234Z,98288.56
2023-02-25T23:44:13.044Z,98267.63
2023-02-25T23:46:42.779Z,98280.28
2023-02-25T23:49:14.511Z,98288.19
2023-02-25T23:51:43.178Z,98280.84
2023-02-25T23:54:14.815Z,98290.34
2023-02-25T23:56:42.534Z,98283.25
2023-02-25T23:59:10.946Z,98289.06
